Time;durP1;ratioP1;P1;durP2;ratioP2;P2;SDS_P1;SDS_P2;PMS_P1;PMS_P2;Temp;Humidity;BMP_temperature;BMP_pressure;BME280_temperature;BME280_humidity;BME280_pressure;Samples;Min_cycle;Max_cycle;Signal;HPM_P1;HPM_P2
2024/01/04 00:00:35;;;;;;;;;;;;;;;13.79;52.16;98315.41;4937740;28;98621;-63
2024/01/04 00:03:01;;;;;;;;;;;;;;;13.77;52.22;98326.56;4935838;28;98695;-64
2024/01/04 00:05:27;;;;;;;;;;;;;;;13.77;52.11;98323.88;4919166;28;98590;-65
2024/01/04 00:07:53;;;;;;;;;;;;;;;13.76;52.07;98327.72;4925518;28;99537;-63
2024/01/04 00:10:20;;;;;;;;;;;;;;;13.77;51.92;98325.78;4927252;28;98483;-65
2024/01/04 00:12:48;;;;;;;;;;;;;;;13.75;52.05;98323.41;4925260;28;98442;-63
2024/01/04 00:15:14;;;;;;;;;;;;;;;13.73;51.90;98320.25;4921338;28;98397;-63
2024/01/04 00:17:41;;;;;;;;;;;;;;;13.72;52.23;98322.19;4920628;28;126590;-63
2024/01/04 00:20:07;;;;;;;;;;;;;;;13.71;51.78;98326.00;4938241;28;99000;-65
2024/01/04 00:22:33;;;;;;;;;;;;;;;13.70;52.27;98320.94;4924945;28;98194;-65
2024/01/04 00:24:59;;;;;;;;;;;;;;;13.69;52.24;98322.06;4934291;28;129564;-63
2024/01/04 00:27:25;;;;;;;;;;;;;;;13.68;51.87;98318.59;4939377;28;98852;-65
2024/01/04 00:29:51;;;;;;;;;;;;;;;13.68;51.78;98315.09;4937723;28;111139;-65
2024/01/04 00:32:17;;;;;;;;;;;;;;;13.66;52.15;98320.81;4923616;28;99643;-63
2024/01/04 00:34:43;;;;;;;;;;;;;;;13.63;52.25;98326.91;4926250;28;97989;-65
2024/01/04 00:37:10;;;;;;;;;;;;;;;13.63;51.82;98323.41;4937041;28;98939;-65
2024/01/04 00:39:35;;;;;;;;;;;;;;;13.63;52.21;98326.91;4924833;28;98715;-65
2024/01/04 00:42:04;;;;;;;;;;;;;;;13.62;52.03;98329.97;4922461;28;118775;-65
2024/01/04 00:44:32;;;;;;;;;;;;;;;13.61;52.08;98326.47;4939423;28;100289;-63
2024/01/04 00:46:58;;;;;;;;;;;;;;;13.60;52.22;98330.31;4927184;28;98140;-65
2024/01/04 00:49:24;;;;;;;;;;;;;;;13.61;51.88;98317.56;4924901;28;126310;-65
2024/01/04 00:51:50;;;;;;;;;;;;;;;13.59;51.97;98328.72;4936673;28;97979;-63
2024/01/04 00:54:17;;;;;;;;;;;;;;;13.58;52.25;98319.03;4918141;28;98940;-63
2024/01/04 00:56:43;;;;;;;;;;;;;;;13.58;52.28;98329.06;4939316;28;98847;-63
2024/01/04 00:59:09;;;;;;;;;;;;;;;13.57;52.14;98322.88;4938710;28;98965;-63
2024/01/04 01:01:35;;;;;;;;;;;;;;;13.57;51.84;98332.91;4938874;28;98419;-65
2024/01/04 01:04:01;;;;;;;;;;;;;;;13.56;52.07;98328.59;4924961;28;99834;-65
2024/01/04 01:06:28;;;;;;;;;;;;;;;13.56;52.11;98323.19;4935854;28;101549;-63
2024/01/04 01:08:55;;;;;;;;;;;;;;;13.55;52.25;98329.72;4971498;27;98179;-63
2024/01/04 01:11:21;;;;;;;;;;;;;;;13.55;52.21;98337.84;4924224;28;100086;-63
2024/01/04 01:13:47;;;;;;;;;;;;;;;13.54;51.98;98339.78;4940250;28;98016;-64
2024/01/04 01:16:13;;;;;;;;;;;;;;;13.53;52.29;98334.72;4924899;28;98857;-63
2024/01/04 01:18:40;;;;;;;;;;;;;;;13.53;52.06;98334.72;4934228;28;98114;-63
2024/01/04 01:21:06;;;;;;;;;;;;;;;13.53;51.86;98338.19;4939409;28;98211;-65
2024/01/04 01:23:32;;;;;;;;;;;;;;;13.53;52.20;98332.00;4943247;28;99400;-64
2024/01/04 01:25:59;;;;;;;;;;;;;;;13.51;52.11;98341.22;4937227;28;100025;-63
2024/01/04 01:28:26;;;;;;;;;;;;;;;13.52;51.93;98328.50;4923231;28;97857;-63
2024/01/04 01:30:53;;;;;;;;;;;;;;;13.51;51.95;98330.41;4928651;28;98214;-66
2024/01/04 01:33:19;;;;;;;;;;;;;;;13.51;52.19;98340.44;4937900;28;128296;-64
2024/01/04 01:35:45;;;;;;;;;;;;;;;13.50;51.94;98344.28;4932627;28;119938;-64
2024/01/04 01:38:10;;;;;;;;;;;;;;;13.50;52.05;98347.78;4922443;28;99033;-64
2024/01/04 01:40:36;;;;;;;;;;;;;;;13.49;51.81;98356.25;4925268;28;99658;-63
2024/01/04 01:43:02;;;;;;;;;;;;;;;13.49;51.80;98354.31;4940128;28;98297;-65
2024/01/04 01:45:29;;;;;;;;;;;;;;;13.49;52.20;98358.94;4919694;28;112428;-63
2024/01/04 01:47:55;;;;;;;;;;;;;;;13.49;51.94;98353.53;4936382;28;97905;-65
2024/01/04 01:50:21;;;;;;;;;;;;;;;13.47;52.25;98348.44;4935894;28;117627;-63
2024/01/04 01:52:48;;;;;;;;;;;;;;;13.49;51.81;98356.25;4918059;28;98630;-64
2024/01/04 01:55:17;;;;;;;;;;;;;;;13.48;51.89;98349.25;4922046;28;97898;-65
2024/01/04 01:57:43;;;;;;;;;;;;;;;13.47;52.03;98359.28;4942677;28;97878;-65
2024/01/04 02:00:12;;;;;;;;;;;;;;;13.47;51.83;98356.56;4922087;28;98180;-63
2024/01/04 02:02:39;;;;;;;;;;;;;;;13.47;51.97;98355.78;4921639;28;98441;-65
2024/01/04 02:05:07;;;;;;;;;;;;;;;13.47;52.19;98363.88;4937502;28;104768;-64
2024/01/04 02:07:32;;;;;;;;;;;;;;;13.45;51.95;98366.94;4921745;28;98387;-63
2024/01/04 02:09:58;;;;;;;;;;;;;;;13.45;52.01;98364.25;4925344;28;98446;-63
2024/01/04 02:12:25;;;;;;;;;;;;;;;13.45;51.88;98366.94;4954898;28;100377;-65
2024/01/04 02:14:54;;;;;;;;;;;;;;;13.45;52.09;98364.25;4942378;28;101129;-64
2024/01/04 02:17:20;;;;;;;;;;;;;;;13.44;52.07;98368.09;4933825;28;98110;-64
2024/01/04 02:19:48;;;;;;;;;;;;;;;13.43;51.90;98377.31;4935707;28;98199;-63
2024/01/04 02:22:17;;;;;;;;;;;;;;;13.43;52.16;98371.88;4924830;28;98455;-63
2024/01/04 02:24:43;;;;;;;;;;;;;;;13.44;52.20;98369.97;4926436;28;100070;-63
2024/01/04 02:27:11;;;;;;;;;;;;;;;13.42;52.17;98378.44;4931567;28;98369;-64
2024/01/04 02:29:37;;;;;;;;;;;;;;;13.42;51.78;98375.72;4956521;28;98656;-63
2024/01/04 02:32:04;;;;;;;;;;;;;;;13.42;51.85;98374.94;4920218;28;98224;-63
2024/01/04 02:34:30;;;;;;;;;;;;;;;13.41;52.19;98374.16;4920914;28;98285;-65
2024/01/04 02:36:56;;;;;;;;;;;;;;;13.41;51.79;98371.47;4919103;28;98101;-64
2024/01/04 02:39:22;;;;;;;;;;;;;;;13.42;52.08;98372.25;4922840;28;98208;-63
2024/01/04 02:41:48;;;;;;;;;;;;;;;13.42;52.22;98374.94;4949067;28;124830;-65
2024/01/04 02:44:14;;;;;;;;;;;;;;;13.41;52.16;98373.38;4934369;28;127441;-62
2024/01/04 02:46:40;;;;;;;;;;;;;;;13.41;52.04;98373.38;4921708;28;99935;-64
2024/01/04 02:49:06;;;;;;;;;;;;;;;13.41;52.01;98371.47;4918173;28;108697;-64
2024/01/04 02:51:32;;;;;;;;;;;;;;;13.40;52.20;98371.78;4938046;28;99566;-63
2024/01/04 02:53:58;;;;;;;;;;;;;;;13.40;52.07;98375.28;4920203;28;98470;-65
2024/01/04 02:56:24;;;;;;;;;;;;;;;13.40;51.93;98377.19;4921362;28;98193;-63
2024/01/04 02:58:50;;;;;;;;;;;;;;;13.39;52.23;98370.97;4919164;28;117782;-66
2024/01/04 03:01:22;;;;;;;;;;;;;;;13.40;51.89;98379.88;4923928;28;100409;-64
2024/01/04 03:03:53;;;;;;;;;;;;;;;13.39;52.08;98372.91;4937068;28;124626;-63
2024/01/04 03:06:27;;;;;;;;;;;;;;;13.39;51.75;98375.63;4953350;28;98477;-64
2024/01/04 03:08:53;;;;;;;;;;;;;;;13.39;51.95;98379.09;4922422;28;98401;-64
2024/01/04 03:11:20;;;;;;;;;;;;;;;13.38;52.18;98369.41;4930858;28;113305;-63
2024/01/04 03:13:49;;;;;;;;;;;;;;;13.38;51.82;98377.53;4922480;28;99869;-64
2024/01/04 03:16:16;;;;;;;;;;;;;;;13.38;51.98;98369.41;4920185;28;99586;-65
2024/01/04 03:18:42;;;;;;;;;;;;;;;13.37;51.99;98365.13;4940101;28;98571;-63
2024/01/04 03:21:10;;;;;;;;;;;;;;;13.38;51.81;98369.41;4919371;28;119728;-65
2024/01/04 03:23:36;;;;;;;;;;;;;;;13.38;52.21;98365.91;4920567;28;98322;-63
2024/01/04 03:26:02;;;;;;;;;;;;;;;13.38;52.25;98371.34;4923063;28;99610;-63
2024/01/04 03:28:28;;;;;;;;;;;;;;;13.39;52.19;98375.63;4933433;28;98155;-63
2024/01/04 03:30:54;;;;;;;;;;;;;;;13.39;51.82;98372.91;4925637;28;98563;-63
2024/01/04 03:33:20;;;;;;;;;;;;;;;13.39;51.74;98368.28;4938192;28;98117;-66
2024/01/04 03:35:46;;;;;;;;;;;;;;;13.39;51.96;98373.69;4922427;28;126346;-62
2024/01/04 03:38:12;;;;;;;;;;;;;;;13.40;52.13;98371.78;4922222;28;102319;-64
2024/01/04 03:40:38;;;;;;;;;;;;;;;13.40;52.16;98391.53;4921358;28;130531;-62
2024/01/04 03:43:04;;;;;;;;;;;;;;;13.40;51.93;98380.72;4919233;28;98065;-62
2024/01/04 03:45:31;;;;;;;;;;;;;;;13.40;51.72;98375.28;4921113;28;99097;-63
2024/01/04 03:47:59;;;;;;;;;;;;;;;13.39;51.75;98375.63;4925189;28;100883;-62
2024/01/04 03:50:25;;;;;;;;;;;;;;;13.39;51.83;98376.41;4933824;28;98414;-64
2024/01/04 03:52:52;;;;;;;;;;;;;;;13.39;51.78;98378.31;4922824;28;112159;-64
2024/01/04 03:55:18;;;;;;;;;;;;;;;13.39;52.24;98383.72;4924026;28;115243;-64
2024/01/04 03:57:44;;;;;;;;;;;;;;;13.38;52.03;98379.44;4920245;28;97978;-64
2024/01/04 04:00:10;;;;;;;;;;;;;;;13.38;52.25;98382.16;4915022;28;129699;-63
2024/01/04 04:02:37;;;;;;;;;;;;;;;13.37;51.97;98389.50;4916024;28;100069;-62
2024/01/04 04:05:03;;;;;;;;;;;;;;;13.37;51.83;98389.50;4919906;28;99501;-65
2024/01/04 04:07:29;;;;;;;;;;;;;;;13.37;52.25;98388.69;4934135;28;98171;-65
2024/01/04 04:09:56;;;;;;;;;;;;;;;13.37;51.87;98391.41;4935298;28;99806;-65
2024/01/04 04:12:22;;;;;;;;;;;;;;;13.37;51.99;98400.31;4923975;28;99778;-64
2024/01/04 04:14:48;;;;;;;;;;;;;;;13.35;51.91;98399.84;4920191;28;103728;-64
2024/01/04 04:17:18;;;;;;;;;;;;;;;13.35;51.85;98399.06;4921653;28;98339;-64
2024/01/04 04:19:44;;;;;;;;;;;;;;;13.34;51.90;98400.97;4923563;28;98274;-64
2024/01/04 04:22:09;;;;;;;;;;;;;;;13.34;51.80;98403.69;4945669;28;127415;-64
2024/01/04 04:24:35;;;;;;;;;;;;;;;13.34;52.20;98400.19;4922548;28;126365;-64
2024/01/04 04:27:01;;;;;;;;;;;;;;;13.33;51.79;98396.69;4920032;28;105102;-64
2024/01/04 04:29:27;;;;;;;;;;;;;;;13.32;51.95;98397.78;4934654;28;122882;-64
2024/01/04 04:31:55;;;;;;;;;;;;;;;13.32;52.13;98397.78;4922228;28;128898;-62
2024/01/04 04:34:21;;;;;;;;;;;;;;;13.30;51.90;98400.06;4930847;28;98578;-64
2024/01/04 04:36:48;;;;;;;;;;;;;;;13.31;52.14;98401.63;4935778;28;98312;-64
2024/01/04 04:39:14;;;;;;;;;;;;;;;13.32;51.83;98397.00;4932641;28;114158;-64
2024/01/04 04:41:40;;;;;;;;;;;;;;;13.30;51.96;98399.28;4932951;28;98382;-64
2024/01/04 04:44:06;;;;;;;;;;;;;;;13.30;51.94;98401.97;4919359;28;126419;-63
2024/01/04 04:46:32;;;;;;;;;;;;;;;13.28;51.84;98402.31;4917786;28;98229;-64
2024/01/04 04:48:59;;;;;;;;;;;;;;;13.29;51.86;98403.13;4915872;28;127880;-62
2024/01/04 04:51:25;;;;;;;;;;;;;;;13.28;51.91;98410.41;4916464;28;98426;-64
2024/01/04 04:53:51;;;;;;;;;;;;;;;13.27;51.88;98411.56;4922351;28;100820;-64
2024/01/04 04:56:18;;;;;;;;;;;;;;;13.26;52.03;98407.28;4934864;28;98157;-64
2024/01/04 04:58:44;;;;;;;;;;;;;;;13.26;52.12;98412.69;4935453;28;108620;-64
2024/01/04 05:01:09;;;;;;;;;;;;;;;13.25;52.23;98408.41;4919088;28;125417;-64
2024/01/04 05:03:40;;;;;;;;;;;;;;;13.24;52.12;98402.19;4941894;28;110228;-63
2024/01/04 05:06:08;;;;;;;;;;;;;;;13.23;52.20;98413.34;4953528;28;98013;-62
2024/01/04 05:08:35;;;;;;;;;;;;;;;13.22;51.89;98420.63;4927387;28;99546;-62
2024/01/04 05:11:01;;;;;;;;;;;;;;;13.22;51.92;98425.25;4934026;28;98394;-64
2024/01/04 05:13:27;;;;;;;;;;;;;;;13.21;51.81;98421.78;4937069;28;103127;-64
2024/01/04 05:15:53;;;;;;;;;;;;;;;13.21;52.27;98419.06;4922644;28;98088;-63
2024/01/04 05:18:19;;;;;;;;;;;;;;;13.20;52.20;98425.63;4957736;28;126572;-63
2024/01/04 05:20:48;;;;;;;;;;;;;;;13.20;52.09;98425.63;4937391;28;98393;-65
2024/01/04 05:23:14;;;;;;;;;;;;;;;13.20;51.87;98422.91;4919956;28;129268;-65
2024/01/04 05:25:40;;;;;;;;;;;;;;;13.19;52.21;98432.13;4936894;28;98346;-63
2024/01/04 05:28:06;;;;;;;;;;;;;;;13.19;52.17;98434.81;4937394;28;100775;-65
2024/01/04 05:30:32;;;;;;;;;;;;;;;13.17;52.06;98431.69;4941014;28;100033;-65
2024/01/04 05:32:58;;;;;;;;;;;;;;;13.17;52.22;98445.22;4921471;28;130631;-65
2024/01/04 05:35:24;;;;;;;;;;;;;;;13.16;51.89;98443.59;4927228;28;98103;-65
2024/01/04 05:37:50;;;;;;;;;;;;;;;13.16;52.15;98442.81;4940129;28;128286;-65
2024/01/04 05:40:16;;;;;;;;;;;;;;;13.17;52.10;98449.81;4956817;28;98293;-63
2024/01/04 05:42:42;;;;;;;;;;;;;;;13.15;51.96;98450.16;4927466;28;99212;-63
2024/01/04 05:45:08;;;;;;;;;;;;;;;13.15;51.89;98449.34;4943230;28;98127;-63
2024/01/04 05:47:35;;;;;;;;;;;;;;;13.14;52.21;98448.56;4920078;28;98148;-63
2024/01/04 05:50:01;;;;;;;;;;;;;;;13.14;51.84;98459.38;4942506;28;98510;-63
2024/01/04 05:52:28;;;;;;;;;;;;;;;13.15;52.23;98457.47;4925766;28;99488;-63
2024/01/04 05:54:54;;;;;;;;;;;;;;;13.14;51.95;98461.31;4929883;28;98001;-66
2024/01/04 05:57:20;;;;;;;;;;;;;;;13.13;52.00;98459.72;4920937;28;98148;-62
2024/01/04 05:59:46;;;;;;;;;;;;;;;13.13;52.22;98465.13;4937098;28;98248;-63
2024/01/04 06:02:12;;;;;;;;;;;;;;;13.13;52.24;98468.63;4929081;28;99312;-65
2024/01/04 06:04:38;;;;;;;;;;;;;;;13.12;52.24;98480.56;4936407;28;117534;-65
2024/01/04 06:07:04;;;;;;;;;;;;;;;13.13;52.01;98486.78;4921194;28;121286;-64
2024/01/04 06:09:30;;;;;;;;;;;;;;;13.12;52.25;98496.78;4937210;28;110023;-63
2024/01/04 06:11:56;;;;;;;;;;;;;;;13.11;52.03;98506.03;4936763;28;98789;-65
2024/01/04 06:14:22;;;;;;;;;;;;;;;13.11;51.83;98497.13;4925082;28;113797;-65
2024/01/04 06:16:48;;;;;;;;;;;;;;;13.11;52.12;98499.84;4933288;28;97999;-63
2024/01/04 06:19:14;;;;;;;;;;;;;;;13.10;52.26;98507.16;4924823;28;98202;-65
2024/01/04 06:21:40;;;;;;;;;;;;;;;13.10;51.83;98507.16;4921970;28;100350;-65
2024/01/04 06:24:06;;;;;;;;;;;;;;;13.10;52.18;98525.31;4923965;28;98540;-65
2024/01/04 06:26:32;;;;;;;;;;;;;;;13.10;52.06;98523.38;4934274;28;98493;-65
2024/01/04 06:28:58;;;;;;;;;;;;;;;13.10;52.05;98531.50;4924242;28;98925;-65
2024/01/04 06:31:24;;;;;;;;;;;;;;;13.11;52.01;98543.09;4948094;28;128815;-63
2024/01/04 06:33:52;;;;;;;;;;;;;;;13.10;51.86;98555.84;4920286;28;98191;-63
2024/01/04 06:36:18;;;;;;;;;;;;;;;13.11;51.86;98564.75;4917830;28;98103;-65
2024/01/04 06:38:45;;;;;;;;;;;;;;;13.10;51.88;98571.28;4930413;28;123523;-63
2024/01/04 06:41:12;;;;;;;;;;;;;;;13.11;52.04;98583.69;4919025;28;98186;-63
2024/01/04 06:43:38;;;;;;;;;;;;;;;13.10;52.13;98579.41;4934311;28;98143;-64
2024/01/04 06:46:04;;;;;;;;;;;;;;;13.09;51.99;98583.22;4918432;28;114782;-63
2024/01/04 06:48:30;;;;;;;;;;;;;;;13.09;51.89;98570.50;4919965;28;99449;-63
2024/01/04 06:50:56;;;;;;;;;;;;;;;13.08;52.02;98577.00;4919387;28;98391;-65
2024/01/04 06:53:22;;;;;;;;;;;;;;;13.09;51.88;98583.22;4932774;28;98574;-65
2024/01/04 06:55:48;;;;;;;;;;;;;;;13.08;52.02;98587.81;4920922;28;100217;-63
2024/01/04 06:58:13;;;;;;;;;;;;;;;13.08;51.88;98592.44;4915671;28;98246;-65
2024/01/04 07:00:39;;;;;;;;;;;;;;;13.08;52.01;98592.44;4918606;28;120902;-63
2024/01/04 07:03:06;;;;;;;;;;;;;;;13.07;52.08;98599.00;4918422;28;101693;-65
2024/01/04 07:05:32;;;;;;;;;;;;;;;13.07;52.19;98605.19;4915266;28;100047;-65
2024/01/04 07:07:58;;;;;;;;;;;;;;;13.07;51.96;98602.47;4917062;28;128724;-63
2024/01/04 07:10:24;;;;;;;;;;;;;;;13.07;52.05;98601.69;4918918;28;98206;-65
2024/01/04 07:12:50;;;;;;;;;;;;;;;13.07;51.98;98605.19;4948123;28;117559;-65
2024/01/04 07:15:16;;;;;;;;;;;;;;;13.07;52.26;98613.31;4952194;28;99242;-65
2024/01/04 07:17:42;;;;;;;;;;;;;;;13.07;52.29;98607.09;4916210;28;97992;-65
2024/01/04 07:20:09;;;;;;;;;;;;;;;13.06;51.84;98609.00;4933789;28;98102;-65
2024/01/04 07:22:37;;;;;;;;;;;;;;;13.07;51.97;98613.31;4939508;28;97996;-63
2024/01/04 07:25:04;;;;;;;;;;;;;;;13.07;52.17;98612.50;4914417;28;98522;-65
2024/01/04 07:27:30;;;;;;;;;;;;;;;13.07;52.03;98610.59;4931860;28;99322;-63
2024/01/04 07:29:57;;;;;;;;;;;;;;;13.07;52.03;98620.63;4916475;28;100352;-63
2024/01/04 07:32:23;;;;;;;;;;;;;;;13.08;52.03;98624.91;4928803;28;98233;-63
2024/01/04 07:34:50;;;;;;;;;;;;;;;13.08;52.10;98630.31;4932933;28;131511;-65
2024/01/04 07:37:16;;;;;;;;;;;;;;;13.07;52.25;98621.41;4914242;28;98159;-63
2024/01/04 07:39:42;;;;;;;;;;;;;;;13.09;52.12;98621.09;4918628;28;127901;-66
2024/01/04 07:42:09;;;;;;;;;;;;;;;13.09;52.14;98621.91;4919380;28;98425;-65
2024/01/04 07:44:35;;;;;;;;;;;;;;;13.10;52.19;98620.75;4917940;28;98556;-65
2024/01/04 07:47:01;;;;;;;;;;;;;;;13.12;51.87;98620.44;4946642;28;98382;-66
2024/01/04 07:49:28;;;;;;;;;;;;;;;13.13;52.21;98633.63;4920826;28;98545;-63
2024/01/04 07:51:54;;;;;;;;;;;;;;;13.14;52.06;98637.13;4916197;28;97942;-65
2024/01/04 07:54:20;;;;;;;;;;;;;;;13.15;51.83;98627.88;4927939;28;98735;-65
2024/01/04 07:56:47;;;;;;;;;;;;;;;13.16;51.86;98629.47;4937203;28;102505;-65
2024/01/04 07:59:13;;;;;;;;;;;;;;;13.18;51.77;98633.44;4929308;28;99330;-64
2024/01/04 08:01:39;;;;;;;;;;;;;;;13.19;51.96;98624.19;4930442;28;99138;-64
2024/01/04 08:04:06;;;;;;;;;;;;;;;13.24;52.08;98624.06;4915307;28;98377;-66
2024/01/04 08:06:32;;;;;;;;;;;;;;;13.29;52.09;98630.38;4914429;28;100280;-64
2024/01/04 08:08:58;;;;;;;;;;;;;;;13.34;51.95;98630.97;4932659;28;98134;-65
2024/01/04 08:11:24;;;;;;;;;;;;;;;13.37;51.61;98629.53;4913673;28;99469;-66
2024/01/04 08:13:53;;;;;;;;;;;;;;;13.38;51.91;98633.81;4942684;28;118058;-65
2024/01/04 08:16:20;;;;;;;;;;;;;;;13.40;51.88;98634.25;4930348;28;98131;-64
2024/01/04 08:18:46;;;;;;;;;;;;;;;13.41;52.05;98638.56;4930544;28;98421;-65
2024/01/04 08:21:12;;;;;;;;;;;;;;;13.44;51.58;98632.47;4930096;28;99626;-64
2024/01/04 08:23:41;;;;;;;;;;;;;;;13.47;52.04;98643.44;4932269;28;98037;-66
2024/01/04 08:26:08;;;;;;;;;;;;;;;13.56;51.68;98637.97;4933294;28;98891;-64
2024/01/04 08:28:36;;;;;;;;;;;;;;;13.65;51.46;98646.03;4916065;28;97978;-64
2024/01/04 08:31:02;;;;;;;;;;;;;;;13.73;51.48;98654.06;4920754;28;98184;-66
2024/01/04 08:33:29;;;;;;;;;;;;;;;13.79;51.67;98649.25;4922991;28;99654;-64
2024/01/04 08:35:55;;;;;;;;;;;;;;;13.85;51.77;98641.72;4918734;28;106700;-64
2024/01/04 08:38:21;;;;;;;;;;;;;;;13.93;51.23;98648.97;4915450;28;100100;-64
2024/01/04 08:40:47;;;;;;;;;;;;;;;14.01;51.49;98653.50;4919161;28;98101;-66
2024/01/04 08:43:14;;;;;;;;;;;;;;;14.10;51.35;98648.00;4935353;28;99937;-66
2024/01/04 08:45:40;;;;;;;;;;;;;;;14.16;51.41;98662.94;4951864;28;99920;-64
2024/01/04 08:48:06;;;;;;;;;;;;;;;14.20;51.51;98644.88;4921217;28;98029;-66
2024/01/04 08:50:32;;;;;;;;;;;;;;;14.23;51.28;98655.84;4920922;28;100220;-66
2024/01/04 08:52:58;;;;;;;;;;;;;;;14.24;51.54;98652.00;4937175;28;97944;-66
2024/01/04 08:55:24;;;;;;;;;;;;;;;14.21;51.32;98671.63;4917056;28;124768;-64
2024/01/04 08:57:50;;;;;;;;;;;;;;;14.15;51.34;98667.56;4917033;28;107287;-66
2024/01/04 09:00:16;;;;;;;;;;;;;;;14.11;51.84;98676.66;4931189;28;111546;-66
2024/01/04 09:02:43;;;;;;;;;;;;;;;14.07;51.57;98687.41;4922720;28;108295;-64
2024/01/04 09:05:09;;;;;;;;;;;;;;;14.05;51.82;98688.84;4914343;28;98822;-66
2024/01/04 09:07:35;;;;;;;;;;;;;;;14.03;51.90;98686.50;4922924;28;98143;-66
2024/01/04 09:10:04;;;;;;;;;;;;;;;14.06;51.74;98693.13;4917961;28;117977;-63
2024/01/04 09:12:30;;;;;;;;;;;;;;;14.10;51.50;98696.75;4950080;28;98225;-65
2024/01/04 09:14:56;;;;;;;;;;;;;;;14.17;51.67;98688.91;4920304;28;98326;-64
2024/01/04 09:17:22;;;;;;;;;;;;;;;14.23;51.50;98701.13;4919967;28;98131;-66
2024/01/04 09:19:49;;;;;;;;;;;;;;;14.24;51.75;98702.69;4932825;28;98059;-66
2024/01/04 09:22:15;;;;;;;;;;;;;;;14.23;51.35;98701.91;4920118;28;98330;-66
2024/01/04 09:24:41;;;;;;;;;;;;;;;14.22;51.46;98710.34;4932542;28;99658;-64
2024/01/04 09:27:08;;;;;;;;;;;;;;;14.24;51.80;98713.53;4920378;28;103221;-66
2024/01/04 09:29:34;;;;;;;;;;;;;;;14.42;51.50;98706.84;4938796;28;98284;-66
2024/01/04 09:32:03;;;;;;;;;;;;;;;14.67;51.20;98701.47;4918854;28;129143;-64
2024/01/04 09:34:29;;;;;;;;;;;;;;;14.87;50.80;98708.75;4919576;28;98205;-64
2024/01/04 09:36:55;;;;;;;;;;;;;;;15.14;50.65;98706.50;4951000;28;98253;-66
2024/01/04 09:39:22;;;;;;;;;;;;;;;15.26;50.80;98708.41;4927422;28;116975;-64
2024/01/04 09:41:50;;;;;;;;;;;;;;;15.38;50.65;98716.53;4928002;28;98143;-64
2024/01/04 09:44:16;;;;;;;;;;;;;;;15.37;50.84;98726.63;4928981;28;98679;-66
2024/01/04 09:46:42;;;;;;;;;;;;;;;15.29;51.10;98726.72;4931984;28;98159;-64
2024/01/04 09:49:10;;;;;;;;;;;;;;;15.35;50.94;98717.22;4917367;28;98196;-64
2024/01/04 09:51:41;;;;;;;;;;;;;;;15.52;50.79;98724.31;4921819;28;100117;-64
2024/01/04 09:54:08;;;;;;;;;;;;;;;15.61;50.60;98712.22;4932560;28;98357;-66
2024/01/04 09:56:39;;;;;;;;;;;;;;;15.63;50.85;98737.09;4918608;28;98059;-65
2024/01/04 09:59:05;;;;;;;;;;;;;;;15.65;50.74;98743.00;4932976;28;98338;-64
2024/01/04 10:01:33;;;;;;;;;;;;;;;15.57;50.95;98743.91;4919569;28;98277;-66
2024/01/04 10:04:07;;;;;;;;;;;;;;;15.42;51.24;98775.25;4915209;28;99701;-66
2024/01/04 10:06:35;;;;;;;;;;;;;;;15.25;51.33;98786.34;4918529;28;98339;-64
2024/01/04 10:09:14;;;;;;;;;;;;;;;15.18;51.36;98794.25;4918308;28;99250;-64
2024/01/04 10:11:49;;;;;;;;;;;;;;;15.18;51.45;98778.75;4936827;28;98230;-64
2024/01/04 10:14:14;;;;;;;;;;;;;;;15.18;51.10;98786.09;4937858;28;107471;-65
2024/01/04 10:16:41;;;;;;;;;;;;;;;15.09;51.56;98788.91;4930026;28;128223;-64
2024/01/04 10:19:07;;;;;;;;;;;;;;;15.00;51.45;98804.50;4930812;28;100992;-64
2024/01/04 10:21:33;;;;;;;;;;;;;;;14.91;51.64;98804.59;4936534;28;98650;-65
2024/01/04 10:24:00;;;;;;;;;;;;;;;14.83;51.91;98824.47;4937507;28;98375;-63
2024/01/04 10:26:27;;;;;;;;;;;;;;;14.73;52.04;98824.88;4934251;28;100150;-66
2024/01/04 10:28:59;;;;;;;;;;;;;;;14.70;51.69;98836.41;4917202;28;98173;-64
2024/01/04 10:31:26;;;;;;;;;;;;;;;14.70;51.54;98818.22;4948127;28;98891;-64
2024/01/04 10:33:59;;;;;;;;;;;;;;;14.68;51.81;98828.59;4919727;28;99235;-66
2024/01/04 10:36:30;;;;;;;;;;;;;;;14.62;51.82;98832.66;4918089;28;99450;-64
2024/01/04 10:38:59;;;;;;;;;;;;;;;14.56;51.73;98833.19;4933459;28;98131;-66
2024/01/04 10:41:28;;;;;;;;;;;;;;;14.52;51.85;98845.81;4915647;28;98327;-64
2024/01/04 10:44:10;;;;;;;;;;;;;;;14.44;52.13;98858.28;4931121;28;98249;-65
2024/01/04 10:46:37;;;;;;;;;;;;;;;14.36;51.90;98859.16;4948379;28;99111;-64
2024/01/04 10:49:03;;;;;;;;;;;;;;;14.28;51.79;98881.69;4944412;28;97901;-65
2024/01/04 10:51:33;;;;;;;;;;;;;;;14.26;51.91;98871.16;4919968;28;100503;-65
2024/01/04 10:54:02;;;;;;;;;;;;;;;14.22;51.92;98879.16;4928534;28;98939;-65
2024/01/04 10:56:30;;;;;;;;;;;;;;;14.21;52.07;98877.56;4934714;28;98073;-65
2024/01/04 10:58:57;;;;;;;;;;;;;;;14.19;51.85;98870.91;4936064;28;98629;-65
2024/01/04 11:01:23;;;;;;;;;;;;;;;14.17;51.67;98876.66;4914992;28;98619;-64
2024/01/04 11:03:51;;;;;;;;;;;;;;;14.16;52.03;98877.78;4921339;28;98263;-66
2024/01/04 11:06:18;;;;;;;;;;;;;;;14.13;51.93;98883.84;4914788;28;99275;-65
2024/01/04 11:08:44;;;;;;;;;;;;;;;14.10;51.95;98884.50;4916501;28;98089;-63
2024/01/04 11:11:10;;;;;;;;;;;;;;;14.08;51.92;98889.47;4915824;28;110058;-65
2024/01/04 11:13:36;;;;;;;;;;;;;;;14.07;51.89;98870.81;4937486;28;98601;-65
2024/01/04 11:16:17;;;;;;;;;;;;;;;14.03;51.89;98886.97;4945855;28;104161;-65
2024/01/04 11:19:02;;;;;;;;;;;;;;;14.00;51.81;98882.19;4918464;28;98385;-64
2024/01/04 11:21:50;;;;;;;;;;;;;;;13.97;52.08;98891.75;4950552;28;100143;-66
2024/01/04 11:24:27;;;;;;;;;;;;;;;13.96;51.89;98882.03;4961589;27;98647;-64
2024/01/04 11:26:57;;;;;;;;;;;;;;;13.93;51.82;98881.91;4921698;28;98697;-63
2024/01/04 11:29:23;;;;;;;;;;;;;;;13.92;51.72;98891.16;4919316;28;98086;-65
2024/01/04 11:31:49;;;;;;;;;;;;;;;13.88;52.19;98898.34;4917909;28;98366;-63
2024/01/04 11:34:16;;;;;;;;;;;;;;;13.86;52.07;98895.94;4915966;28;98421;-66
2024/01/04 11:36:43;;;;;;;;;;;;;;;13.84;51.74;98887.38;4918253;28;98417;-64
2024/01/04 11:39:10;;;;;;;;;;;;;;;13.81;51.95;98889.94;4931195;28;98267;-65
2024/01/04 11:41:36;;;;;;;;;;;;;;;13.77;51.76;98908.75;4918340;28;98883;-64
2024/01/04 11:44:03;;;;;;;;;;;;;;;13.74;51.78;98907.47;4931889;28;98450;-66
2024/01/04 11:46:29;;;;;;;;;;;;;;;13.72;52.18;98919.78;4932298;28;120459;-63
2024/01/04 11:49:01;;;;;;;;;;;;;;;13.71;51.76;98918.16;4915844;28;98217;-63
2024/01/04 11:51:32;;;;;;;;;;;;;;;13.70;51.70;98909.25;4946855;28;98310;-63
2024/01/04 11:53:58;;;;;;;;;;;;;;;13.72;51.65;98917.06;4933122;28;99669;-65
2024/01/04 11:56:25;;;;;;;;;;;;;;;13.70;52.00;98928.19;4917654;28;98161;-64
2024/01/04 11:58:52;;;;;;;;;;;;;;;13.70;51.74;98930.13;4924725;28;98962;-64
2024/01/04 12:01:23;;;;;;;;;;;;;;;13.72;51.79;98927.88;4915598;28;102811;-65
2024/01/04 12:03:50;;;;;;;;;;;;;;;13.74;51.56;98936.47;4914642;28;99545;-64
2024/01/04 12:06:17;;;;;;;;;;;;;;;13.88;51.66;98941.69;4917219;28;99678;-64
2024/01/04 12:08:43;;;;;;;;;;;;;;;13.88;51.43;98936.25;4929829;28;98209;-66
2024/01/04 12:11:10;;;;;;;;;;;;;;;13.89;51.57;98946.75;4913492;28;120349;-64
2024/01/04 12:13:35;;;;;;;;;;;;;;;13.86;51.54;98954.75;4931941;28;99870;-64
2024/01/04 12:16:03;;;;;;;;;;;;;;;13.85;51.71;98950.44;4915381;28;98178;-64
2024/01/04 12:18:32;;;;;;;;;;;;;;;13.81;51.60;98961.13;4950417;28;99231;-64
2024/01/04 12:21:03;;;;;;;;;;;;;;;13.79;51.97;98957.16;4916035;28;98181;-66
2024/01/04 12:23:30;;;;;;;;;;;;;;;13.74;51.74;98967.03;4934491;28;98690;-65
2024/01/04 12:25:56;;;;;;;;;;;;;;;13.69;52.00;98969.94;4913171;28;98150;-66
2024/01/04 12:28:23;;;;;;;;;;;;;;;13.65;51.76;98970.91;4917280;28;99772;-63
2024/01/04 12:30:49;;;;;;;;;;;;;;;13.61;51.73;98968.06;4933486;28;98891;-64
2024/01/04 12:33:15;;;;;;;;;;;;;;;13.58;52.16;98982.22;4930815;28;106994;-65
2024/01/04 12:35:41;;;;;;;;;;;;;;;13.54;51.69;98985.91;4929034;28;128094;-64
2024/01/04 12:38:07;;;;;;;;;;;;;;;13.53;51.83;99004.06;4916555;28;98237;-64
2024/01/04 12:40:45;;;;;;;;;;;;;;;13.49;51.77;98998.50;4916054;28;98405;-64